createdAt,value
2023-03-08T00:54:55.922Z,28.18
2023-03-08T00:55:56.873Z,28.17
2023-03-08T00:56:56.866Z,28.19
2023-03-08T00:57:56.850Z,28.22
2023-03-08T00:58:56.847Z,28.20
2023-03-08T00:59:56.836Z,28.17
2023-03-08T01:00:56.872Z,28.22
2023-03-08T01:01:56.829Z,28.19
2023-03-08T01:02:56.807Z,28.20
2023-03-08T01:03:56.823Z,28.18
2023-03-08T01:04:56.793Z,28.21
2023-03-08T01:05:56.788Z,28.21
2023-03-08T01:06:56.777Z,28.19
2023-03-08T01:07:56.763Z,28.19
2023-03-08T01:08:56.754Z,28.21
2023-03-08T01:09:56.751Z,28.18
2023-03-08T01:11:56.731Z,28.24
2023-03-08T01:12:56.729Z,28.22
2023-03-08T01:13:56.716Z,28.21
2023-03-08T01:14:56.698Z,28.15
2023-03-08T01:15:56.709Z,28.18
2023-03-08T01:16:56.687Z,28.18
2023-03-08T01:17:56.675Z,28.17
2023-03-08T01:18:56.669Z,28.18
2023-03-08T01:19:56.668Z,28.18
2023-03-08T01:20:56.653Z,28.19
2023-03-08T01:21:56.639Z,28.15
2023-03-08T01:22:56.637Z,28.19
2023-03-08T01:23:56.625Z,28.18
2023-03-08T01:24:56.619Z,28.14
2023-03-08T01:25:56.606Z,28.22
2023-03-08T01:26:56.622Z,28.19
2023-03-08T01:27:56.591Z,28.19
2023-03-08T01:28:56.586Z,28.18
2023-03-08T01:29:56.574Z,28.18
2023-03-08T01:30:56.568Z,28.21
2023-03-08T01:31:56.561Z,28.14
2023-03-08T01:32:56.544Z,28.19
2023-03-08T01:33:56.539Z,28.18
2023-03-08T01:34:56.533Z,28.18
2023-03-08T01:35:56.555Z,28.15
2023-03-08T01:36:56.521Z,28.18
2023-03-08T01:37:56.509Z,28.21
2023-03-08T01:38:56.495Z,28.17
2023-03-08T01:39:56.484Z,28.17
2023-03-08T01:40:56.478Z,28.19
2023-03-08T01:42:56.480Z,28.17
2023-03-08T04:26:55.009Z,27.93
2023-03-08T06:41:53.817Z,27.63
2023-03-08T07:00:53.691Z,29.07
2023-03-08T07:02:53.689Z,29.27
2023-03-08T07:08:53.607Z,29.82
2023-03-08T07:09:53.607Z,29.94
2023-03-08T07:15:53.607Z,30.33
2023-03-08T07:17:53.512Z,30.42
2023-03-08T07:23:53.469Z,30.49
2023-03-08T07:46:53.339Z,26.52
2023-03-08T07:52:08.816Z,26.59
2023-03-08T07:55:53.200Z,24.68
2023-03-08T08:11:53.090Z,23.36
2023-03-08T08:25:52.900Z,22.49
2023-03-08T08:29:52.873Z,22.82
2023-03-08T08:30:52.863Z,22.97
2023-03-08T08:38:08.470Z,24.90
2023-03-08T08:39:00.188Z,25.54
2023-03-08T08:57:53.250Z,27.89
2023-03-08T08:59:52.603Z,28.04
2023-03-08T09:02:53.048Z,28.32
2023-03-08T09:12:09.504Z,27.64
2023-03-08T09:13:10.542Z,26.97
2023-03-08T09:14:10.495Z,26.95
2023-03-08T09:15:10.478Z,26.95
2023-03-08T09:16:10.581Z,27.09
2023-03-08T09:17:10.465Z,26.75
2023-03-08T09:18:10.457Z,26.49
2023-03-08T09:19:11.450Z,26.34
2023-03-08T09:20:10.449Z,26.73
2023-03-08T09:21:10.428Z,26.94
2023-03-08T09:22:10.471Z,26.87
2023-03-08T09:23:10.500Z,26.37
2023-03-08T09:24:10.417Z,26.50
2023-03-08T09:25:10.417Z,26.91
2023-03-08T09:26:10.386Z,26.77
2023-03-08T09:27:10.486Z,26.80
2023-03-08T09:28:10.367Z,26.74
2023-03-08T09:29:10.395Z,26.47
2023-03-08T09:30:10.374Z,26.80
2023-03-08T09:31:10.340Z,26.97
2023-03-08T09:32:10.665Z,27.05
2023-03-08T09:33:10.327Z,26.68
2023-03-08T09:34:10.318Z,26.43
2023-03-08T09:35:10.312Z,26.37
2023-03-08T09:36:10.315Z,26.77
2023-03-08T09:37:10.294Z,26.82
2023-03-08T09:38:10.483Z,27.18
2023-03-08T09:39:10.308Z,27.50
2023-03-08T09:40:10.302Z,27.53
2023-03-08T09:41:10.314Z,27.18
2023-03-08T09:42:10.251Z,27.87
2023-03-08T09:43:10.693Z,27.75
2023-03-08T09:44:11.586Z,27.41
2023-03-08T09:45:13.440Z,27.06
2023-03-08T09:46:10.261Z,26.46
2023-03-08T09:47:10.220Z,26.37
2023-03-08T09:48:10.241Z,25.64
2023-03-08T09:49:10.547Z,26.06
2023-03-08T09:50:10.196Z,25.74
2023-03-08T09:51:10.177Z,25.57
2023-03-08T09:52:10.176Z,25.54
2023-03-08T09:53:10.159Z,25.64
2023-03-08T09:54:10.486Z,25.65
2023-03-08T09:55:09.202Z,25.71
2023-03-08T09:56:10.127Z,25.42
2023-03-08T09:57:10.277Z,25.36
2023-03-08T09:58:10.116Z,25.25
2023-03-08T09:59:10.486Z,25.26
2023-03-08T10:00:10.092Z,25.23
2023-03-08T10:01:10.235Z,25.15
2023-03-08T10:02:10.073Z,25.24
2023-03-08T10:03:10.519Z,25.76
2023-03-08T10:04:10.100Z,25.74
2023-03-08T10:05:13.588Z,25.85
2023-03-08T10:06:10.032Z,25.89
2023-03-08T10:07:10.027Z,25.80
2023-03-08T10:08:10.025Z,25.79
2023-03-08T10:09:10.007Z,25.86
2023-03-08T10:10:10.486Z,25.93
2023-03-08T10:11:09.991Z,25.90
2023-03-08T10:12:13.468Z,26.00
2023-03-08T10:13:09.997Z,26.17
2023-03-08T10:14:10.906Z,26.18
2023-03-08T10:15:10.485Z,26.15
2023-03-08T10:16:09.941Z,26.10
2023-03-08T10:17:10.395Z,26.24
2023-03-08T10:18:09.931Z,26.14
2023-03-08T10:19:09.985Z,26.17
2023-03-08T10:20:10.273Z,26.20
2023-03-08T10:21:10.594Z,26.24
2023-03-08T10:22:09.891Z,26.44
2023-03-08T10:23:09.883Z,26.57
2023-03-08T10:24:09.873Z,26.93
2023-03-08T10:25:09.865Z,26.92
2023-03-08T10:26:09.863Z,27.08
2023-03-08T10:27:09.996Z,27.30
2023-03-08T10:28:09.836Z,27.31
2023-03-08T10:29:09.885Z,27.58
2023-03-08T10:30:09.824Z,27.69
2023-03-08T10:31:09.835Z,28.14
2023-03-08T10:32:10.099Z,28.30
2023-03-08T10:33:09.815Z,28.37
2023-03-08T10:34:09.997Z,28.59
2023-03-08T10:35:09.782Z,28.50
2023-03-08T10:36:09.783Z,28.51
2023-03-08T10:37:10.005Z,28.49
2023-03-08T10:38:09.756Z,28.42
2023-03-08T10:39:09.753Z,28.43
2023-03-08T10:40:09.739Z,28.46
2023-03-08T10:41:09.728Z,28.47
2023-03-08T10:42:10.000Z,28.49
2023-03-08T10:43:09.711Z,28.53
2023-03-08T10:44:09.703Z,28.50
2023-03-08T10:45:09.771Z,28.55
2023-03-08T10:46:10.044Z,26.53
2023-03-08T10:47:09.673Z,26.72
2023-03-08T10:48:09.668Z,25.62
2023-03-08T10:49:09.666Z,25.85
2023-03-08T10:50:09.648Z,26.43
2023-03-08T10:51:09.640Z,26.68
2023-03-08T10:52:09.633Z,27.02
2023-03-08T10:53:09.631Z,27.12
2023-03-08T10:54:09.613Z,27.31
2023-03-08T10:55:09.604Z,27.39
2023-03-08T10:56:09.619Z,27.49
2023-03-08T10:57:09.590Z,27.90
2023-03-08T10:58:09.584Z,28.10
2023-03-08T10:59:09.572Z,28.28
2023-03-08T11:00:12.038Z,28.38
2023-03-08T11:01:10.035Z,28.56
2023-03-08T11:02:09.544Z,28.69
2023-03-08T11:03:09.538Z,28.87
2023-03-08T11:04:09.529Z,28.79
2023-03-08T11:05:09.518Z,28.85
2023-03-08T11:06:12.197Z,28.99
2023-03-08T11:07:09.498Z,29.13
2023-03-08T11:08:09.588Z,29.24
2023-03-08T11:09:09.481Z,29.14
2023-03-08T11:10:09.510Z,29.31
2023-03-08T11:11:09.498Z,29.34
2023-03-08T11:12:11.097Z,29.45
2023-03-08T11:13:09.444Z,29.40
2023-03-08T11:14:09.444Z,29.47
2023-03-08T11:15:09.425Z,29.60
2023-03-08T11:16:09.471Z,29.59
2023-03-08T11:17:09.445Z,29.65
2023-03-08T11:18:11.450Z,29.68
2023-03-08T11:19:09.532Z,29.88
2023-03-08T11:20:09.386Z,29.82
2023-03-08T11:21:09.380Z,29.73
2023-03-08T11:22:09.367Z,29.77
2023-03-08T11:23:09.513Z,29.74
2023-03-08T11:24:09.392Z,29.76
2023-03-08T11:25:09.606Z,29.70
2023-03-08T11:26:09.339Z,29.70
2023-03-08T11:27:09.408Z,29.81
2023-03-08T11:28:09.469Z,29.77
2023-03-08T11:29:09.340Z,29.84
2023-03-08T11:30:11.691Z,29.86
2023-03-08T11:31:09.333Z,29.83
2023-03-08T11:32:09.345Z,29.96
2023-03-08T11:33:09.708Z,30.10
2023-03-08T11:34:09.341Z,30.03
2023-03-08T11:35:09.258Z,30.22
2023-03-08T11:36:10.960Z,30.14
2023-03-08T11:37:09.247Z,30.24
2023-03-08T11:38:09.223Z,30.24
2023-03-08T11:39:09.217Z,30.26
2023-03-08T11:40:09.211Z,30.24
2023-03-08T11:41:09.545Z,30.31
2023-03-08T11:42:10.973Z,30.29
2023-03-08T11:43:09.216Z,30.61
2023-03-08T11:44:09.649Z,30.55
2023-03-08T11:45:09.715Z,30.52
2023-03-08T11:46:09.567Z,30.59
2023-03-08T11:47:09.144Z,30.56
2023-03-08T11:48:10.836Z,30.56
2023-03-08T11:49:09.590Z,30.53
2023-03-08T11:50:09.117Z,30.53
2023-03-08T11:51:09.548Z,30.59
2023-03-08T11:52:09.554Z,30.80
2023-03-08T11:53:09.091Z,30.85
2023-03-08T11:54:09.084Z,30.62
2023-03-08T11:55:09.107Z,30.62
2023-03-08T11:56:09.067Z,30.63
2023-03-08T11:57:09.053Z,30.60
2023-03-08T11:58:09.047Z,30.49
2023-03-08T11:59:09.575Z,30.53
2023-03-08T12:00:09.027Z,30.53
2023-03-08T12:01:09.020Z,30.45
2023-03-08T12:02:09.011Z,30.46
2023-03-08T12:03:09.073Z,30.52
2023-03-08T12:04:09.191Z,30.94
2023-03-08T12:05:09.057Z,30.81
2023-03-08T12:06:22.723Z,30.58
2023-03-08T12:07:09.105Z,30.58
2023-03-08T12:08:08.986Z,30.62
2023-03-08T12:09:08.999Z,30.64
2023-03-08T12:10:08.989Z,30.75
2023-03-08T12:11:08.930Z,30.68
2023-03-08T12:12:09.030Z,30.84
2023-03-08T12:13:08.914Z,28.14
2023-03-08T12:14:08.903Z,28.14
2023-03-08T12:15:08.931Z,28.90
2023-03-08T12:16:08.911Z,29.22
2023-03-08T12:17:09.179Z,29.60
2023-03-08T12:18:08.871Z,29.66
2023-03-08T12:19:08.890Z,29.62
2023-03-08T12:20:08.848Z,28.83
2023-03-08T12:21:08.956Z,27.89
2023-03-08T12:22:09.036Z,25.36
2023-03-08T12:23:08.964Z,25.21
2023-03-08T12:24:09.105Z,26.66
2023-03-08T12:25:08.805Z,27.16
2023-03-08T12:26:08.794Z,27.67
2023-03-08T12:27:08.809Z,27.67
2023-03-08T12:28:08.814Z,27.85
2023-03-08T12:29:08.822Z,27.83
2023-03-08T12:30:08.771Z,27.87
2023-03-08T12:31:21.432Z,27.58
2023-03-08T12:32:09.257Z,27.45
2023-03-08T12:33:08.853Z,27.58
2023-03-08T12:34:11.326Z,27.22
2023-03-08T12:35:08.729Z,27.44
2023-03-08T12:36:08.812Z,27.10
2023-03-08T12:37:09.103Z,28.06
2023-03-08T12:38:08.770Z,27.53
2023-03-08T12:39:09.189Z,27.40
2023-03-08T12:40:08.715Z,26.93
2023-03-08T12:41:08.704Z,26.75
2023-03-08T12:42:09.065Z,26.72
2023-03-08T12:43:08.649Z,26.57
2023-03-08T12:44:08.645Z,26.41
2023-03-08T12:45:08.632Z,26.32
2023-03-08T12:46:08.738Z,26.26
2023-03-08T12:47:08.632Z,26.25
2023-03-08T12:48:08.615Z,26.13
2023-03-08T12:49:08.602Z,26.14
2023-03-08T12:50:08.591Z,26.06
2023-03-08T12:51:09.075Z,26.07
2023-03-08T12:52:08.609Z,25.99
2023-03-08T12:53:08.593Z,26.04
2023-03-08T12:54:09.083Z,25.92
2023-03-08T12:55:08.548Z,25.86
2023-03-08T12:56:08.538Z,25.89
2023-03-08T12:57:08.530Z,25.84
2023-03-08T12:58:08.518Z,25.83
2023-03-08T12:59:08.514Z,26.11
2023-03-08T13:00:08.508Z,26.50
2023-03-08T13:01:08.596Z,26.04
2023-03-08T13:02:08.498Z,25.83
2023-03-08T13:03:08.579Z,25.79
2023-03-08T13:04:08.491Z,25.97
2023-03-08T13:05:08.513Z,26.61
2023-03-08T13:06:08.452Z,25.81
2023-03-08T13:07:08.448Z,25.95
2023-03-08T13:08:08.435Z,25.86
2023-03-08T13:09:08.505Z,25.84
2023-03-08T13:10:08.413Z,26.04
2023-03-08T13:11:08.560Z,26.23
2023-03-08T13:12:08.398Z,26.45
2023-03-08T13:13:08.410Z,26.57
2023-03-08T13:14:08.383Z,26.69
2023-03-08T13:15:08.414Z,26.72
2023-03-08T13:16:08.368Z,26.99
2023-03-08T13:17:08.358Z,27.22
2023-03-08T13:18:08.368Z,27.26
2023-03-08T13:19:08.407Z,27.34
2023-03-08T13:20:08.400Z,27.52
2023-03-08T13:21:08.567Z,27.68
2023-03-08T13:22:08.313Z,27.79
2023-03-08T13:23:08.468Z,27.92
2023-03-08T13:24:08.292Z,28.07
2023-03-08T13:25:08.367Z,28.16
2023-03-08T13:26:08.327Z,28.16
2023-03-08T13:27:08.268Z,28.26
2023-03-08T13:28:08.263Z,28.33
2023-03-08T13:29:08.356Z,28.36
2023-03-08T13:30:08.257Z,28.43
2023-03-08T13:31:08.320Z,28.57
2023-03-08T13:32:08.247Z,28.58
2023-03-08T13:33:08.213Z,28.67
2023-03-08T13:34:08.207Z,28.73
2023-03-08T13:35:08.207Z,28.78
2023-03-08T13:36:08.257Z,28.92
2023-03-08T13:37:08.184Z,28.95
2023-03-08T13:38:08.171Z,28.94
2023-03-08T13:39:08.164Z,28.97
2023-03-08T13:40:08.158Z,29.01
2023-03-08T13:41:08.631Z,29.11
2023-03-08T13:42:08.163Z,29.11
2023-03-08T13:43:08.152Z,29.18
2023-03-08T13:44:08.147Z,29.25
2023-03-08T13:45:08.111Z,29.28
2023-03-08T13:46:08.230Z,29.32
2023-03-08T13:47:09.562Z,29.35
2023-03-08T13:48:08.085Z,29.38
2023-03-08T13:49:08.073Z,29.44
2023-03-08T13:50:08.070Z,29.49
2023-03-08T13:51:08.146Z,30.02
2023-03-08T13:52:08.049Z,29.71
2023-03-08T13:53:08.058Z,29.63
2023-03-08T13:54:08.117Z,29.43
2023-03-08T13:55:08.122Z,29.31
2023-03-08T13:56:08.039Z,29.28
2023-03-08T13:57:08.061Z,29.17
2023-03-08T13:58:08.058Z,28.93
2023-03-08T13:59:08.040Z,29.01
2023-03-08T14:00:08.045Z,29.08
2023-03-08T14:01:08.011Z,29.10
2023-03-08T14:02:08.097Z,29.02
2023-03-08T14:03:08.063Z,28.99
2023-03-08T14:04:08.212Z,28.96
2023-03-08T14:05:07.941Z,28.92
2023-03-08T14:06:08.049Z,28.96
2023-03-08T14:07:07.918Z,28.89
2023-03-08T14:08:07.931Z,28.88
2023-03-08T14:09:07.901Z,28.85
2023-03-08T14:10:07.890Z,28.91
2023-03-08T14:11:07.881Z,28.87
2023-03-08T14:12:07.912Z,28.87
2023-03-08T14:13:07.904Z,28.87
2023-03-08T14:14:07.896Z,28.87
2023-03-08T14:15:07.921Z,28.84
2023-03-08T14:16:07.932Z,28.87
2023-03-08T14:17:07.875Z,28.88
2023-03-08T14:18:07.884Z,28.85
2023-03-08T14:19:07.956Z,28.84
2023-03-08T14:20:07.842Z,28.82
2023-03-08T14:21:07.933Z,28.83
2023-03-08T14:22:07.803Z,28.89
2023-03-08T14:23:07.834Z,28.87
2023-03-08T14:24:07.780Z,28.89
2023-03-08T14:25:07.836Z,28.83
2023-03-08T14:26:07.755Z,28.80
2023-03-08T14:27:07.742Z,28.85
2023-03-08T14:28:07.769Z,28.85
2023-03-08T14:29:08.133Z,28.86
2023-03-08T14:30:07.713Z,28.83
2023-03-08T14:31:07.848Z,28.79
2023-03-08T14:32:07.892Z,28.79
2023-03-08T14:33:07.687Z,28.79
2023-03-08T14:34:08.082Z,28.77
2023-03-08T14:35:07.688Z,28.72
2023-03-08T14:36:07.710Z,28.72
2023-03-08T14:37:07.653Z,28.76
2023-03-08T14:38:07.643Z,28.75
2023-03-08T14:39:08.088Z,28.75
2023-03-08T14:40:07.624Z,28.73
2023-03-08T14:41:07.622Z,28.67
2023-03-08T14:42:07.698Z,28.63
2023-03-08T14:43:07.603Z,28.74
2023-03-08T14:44:07.600Z,28.71
2023-03-08T14:45:07.617Z,28.78
2023-03-08T14:46:07.685Z,28.74
2023-03-08T14:47:07.565Z,28.70
2023-03-08T14:48:07.552Z,28.68
2023-03-08T14:49:07.594Z,28.77
2023-03-08T14:50:07.596Z,28.77
2023-03-08T14:51:07.582Z,28.75
2023-03-08T14:52:09.371Z,28.75
2023-03-08T14:53:07.589Z,28.70
2023-03-08T14:54:07.591Z,28.72
2023-03-08T14:55:07.486Z,28.79
2023-03-08T14:56:07.485Z,28.85
2023-03-08T14:57:07.471Z,28.79
2023-03-08T14:58:07.465Z,28.75
2023-03-08T14:59:10.412Z,28.71
2023-03-08T15:00:07.784Z,28.74
2023-03-08T15:01:07.472Z,28.79
2023-03-08T15:02:07.654Z,28.79
2023-03-08T15:03:07.425Z,28.78
2023-03-08T15:04:07.443Z,28.74
2023-03-08T15:05:07.400Z,28.72
2023-03-08T15:06:07.395Z,28.89
2023-03-08T15:07:07.385Z,28.93
2023-03-08T15:08:07.374Z,28.96
2023-03-08T15:09:07.367Z,29.01
2023-03-08T15:10:07.359Z,29.15
2023-03-08T15:11:07.359Z,29.15
2023-03-08T15:12:07.338Z,29.14
2023-03-08T15:13:07.350Z,29.09
2023-03-08T15:14:07.321Z,29.04
2023-03-08T15:15:07.309Z,28.96
2023-03-08T15:16:07.368Z,28.90
2023-03-08T15:17:07.382Z,29.70
2023-03-08T15:18:07.289Z,30.42
2023-03-08T15:19:07.597Z,31.42
2023-03-08T15:20:07.262Z,31.97
2023-03-08T15:21:14.226Z,31.70
2023-03-08T15:22:07.296Z,31.63
2023-03-08T15:23:07.247Z,31.74
2023-03-08T15:25:07.223Z,32.06
2023-03-08T15:34:07.700Z,31.60
2023-03-08T18:04:06.115Z,28.48
2023-03-08T18:05:06.195Z,28.42
2023-03-08T18:06:06.252Z,28.44
2023-03-08T18:07:06.020Z,28.40
2023-03-08T18:08:05.999Z,28.37
2023-03-08T18:09:06.010Z,28.41
2023-03-08T18:10:05.983Z,28.40
2023-03-08T18:11:06.534Z,28.41
2023-03-08T18:12:05.971Z,28.41
2023-03-08T18:13:05.992Z,28.38
2023-03-08T18:14:05.963Z,28.35
2023-03-08T18:15:05.938Z,28.39
2023-03-08T18:16:06.001Z,28.40
2023-03-08T18:17:05.925Z,28.37
2023-03-08T18:18:05.912Z,28.37
2023-03-08T18:19:05.912Z,28.38
2023-03-08T18:20:05.902Z,28.32
2023-03-08T18:21:13.072Z,28.34
2023-03-08T18:22:05.884Z,28.35
2023-03-08T18:23:05.869Z,28.31
2023-03-08T18:24:05.871Z,28.34
2023-03-08T18:25:05.872Z,28.29
2023-03-08T18:26:05.848Z,28.31
2023-03-08T18:27:05.844Z,28.25
2023-03-08T18:28:05.837Z,28.23
2023-03-08T18:29:05.924Z,28.24
2023-03-08T18:30:05.809Z,28.23
2023-03-08T18:31:05.850Z,28.21
2023-03-08T18:32:05.928Z,28.21
2023-03-08T18:33:06.704Z,28.24
2023-03-08T18:34:05.771Z,28.17
2023-03-08T18:35:05.762Z,28.23
2023-03-08T18:36:05.768Z,28.17
2023-03-08T18:37:05.744Z,28.19
2023-03-08T18:38:05.749Z,28.16
2023-03-08T18:39:05.801Z,28.17
2023-03-08T18:40:05.725Z,28.14
2023-03-08T18:41:05.713Z,28.16
2023-03-08T18:42:05.704Z,28.12
2023-03-08T18:43:05.700Z,28.13
2023-03-08T18:44:05.683Z,28.10
2023-03-08T18:45:05.759Z,28.10
2023-03-08T18:46:05.675Z,28.13
2023-03-08T18:47:05.660Z,28.10
2023-03-08T18:48:05.657Z,28.07
2023-03-08T18:49:05.639Z,28.07
2023-03-08T18:50:05.623Z,28.03
2023-03-08T18:51:05.619Z,28.09
2023-03-08T18:52:05.608Z,28.07
2023-03-08T18:53:05.598Z,28.10
2023-03-08T18:54:05.627Z,28.06
2023-03-08T18:55:05.579Z,28.05
2023-03-08T18:56:05.870Z,28.00
2023-03-08T18:57:05.579Z,28.02
2023-03-08T18:58:05.556Z,28.06
2023-03-08T18:59:05.547Z,28.02
2023-03-08T19:00:05.535Z,28.06
2023-03-08T19:01:05.633Z,28.03
2023-03-08T19:02:05.558Z,28.02
2023-03-08T19:03:05.513Z,28.02
2023-03-08T19:04:05.517Z,28.00
2023-03-08T19:05:05.497Z,28.03
2023-03-08T19:06:05.489Z,28.03
2023-03-08T19:07:05.478Z,28.00
2023-03-08T19:08:05.470Z,27.99
2023-03-08T19:09:05.460Z,28.06
2023-03-08T19:10:05.468Z,28.06
2023-03-08T19:11:05.445Z,28.09
2023-03-08T19:12:05.440Z,28.04
2023-03-08T19:13:05.425Z,27.96
2023-03-08T19:14:05.420Z,28.00
2023-03-08T19:15:05.411Z,28.03
2023-03-08T19:16:05.426Z,27.96
2023-03-08T19:17:05.421Z,27.99
2023-03-08T19:18:05.386Z,27.95
2023-03-08T19:19:05.375Z,27.94
2023-03-08T19:20:05.361Z,27.95
2023-03-08T19:21:05.358Z,27.99
2023-03-08T19:22:05.366Z,27.96
2023-03-08T19:23:05.344Z,27.97
2023-03-08T19:24:05.342Z,28.03
2023-03-08T19:25:05.324Z,27.99
2023-03-08T19:26:05.313Z,27.99
2023-03-08T19:27:05.309Z,27.96
2023-03-08T19:28:05.298Z,27.95
2023-03-08T19:29:05.376Z,27.95
2023-03-08T19:30:05.277Z,27.95
2023-03-08T19:31:05.267Z,27.97
2023-03-08T19:32:05.294Z,27.97
2023-03-08T19:33:05.272Z,27.99
2023-03-08T19:34:05.247Z,27.97
2023-03-08T19:35:05.233Z,27.94
2023-03-08T19:36:05.297Z,27.99
2023-03-08T19:37:05.217Z,27.99
2023-03-08T19:38:05.213Z,28.02
2023-03-08T19:39:05.222Z,28.04
2023-03-08T19:40:05.195Z,28.02
2023-03-08T19:41:05.181Z,28.02
2023-03-08T19:42:05.172Z,27.99
2023-03-08T19:43:05.163Z,27.99
2023-03-08T19:44:05.156Z,28.04
2023-03-08T19:45:05.151Z,28.02
2023-03-08T19:46:05.175Z,28.05
2023-03-08T19:47:05.144Z,28.05
2023-03-08T19:48:05.122Z,28.04
2023-03-08T19:49:05.257Z,28.03
2023-03-08T19:50:05.109Z,28.03
2023-03-08T19:51:05.144Z,28.07
2023-03-08T19:52:05.109Z,28.02
2023-03-08T19:53:05.078Z,28.05
2023-03-08T19:54:05.074Z,28.08
2023-03-08T19:55:05.090Z,28.05
2023-03-08T19:56:05.060Z,28.06
2023-03-08T19:57:05.056Z,28.05
2023-03-08T19:58:05.039Z,28.04
2023-03-08T19:59:05.030Z,28.04
2023-03-08T20:00:05.020Z,28.02
2023-03-08T20:01:05.047Z,28.07
2023-03-08T20:02:04.999Z,28.04
2023-03-08T20:03:04.996Z,28.05
2023-03-08T20:04:04.992Z,28.03
2023-03-08T20:05:05.003Z,28.08
2023-03-08T20:06:04.979Z,28.05
2023-03-08T20:07:05.006Z,28.12
2023-03-08T20:08:04.951Z,28.09
2023-03-08T20:09:04.941Z,28.08
2023-03-08T20:10:15.777Z,28.07
2023-03-08T20:11:04.925Z,28.04
2023-03-08T20:12:04.913Z,28.04
2023-03-08T20:13:04.946Z,28.01
2023-03-08T20:14:04.897Z,28.02
2023-03-08T20:15:04.887Z,28.04
2023-03-08T20:16:04.878Z,28.05
2023-03-08T20:17:04.972Z,28.04
2023-03-08T20:18:04.913Z,28.04
2023-03-08T20:19:04.913Z,28.02
2023-03-08T20:20:04.845Z,28.04
2023-03-08T20:21:04.872Z,28.05
2023-03-08T20:22:04.831Z,28.01
2023-03-08T20:23:04.814Z,28.01
2023-03-08T20:24:04.807Z,28.01
2023-03-08T20:25:04.800Z,27.98
2023-03-08T20:26:05.371Z,28.00
2023-03-08T20:27:04.785Z,27.94
2023-03-08T20:28:04.770Z,27.98
2023-03-08T20:29:04.766Z,28.00
2023-03-08T20:30:04.752Z,28.00
2023-03-08T20:31:04.764Z,27.98
2023-03-08T20:32:04.778Z,27.97
2023-03-08T20:33:04.724Z,28.00
2023-03-08T20:34:04.732Z,28.01
2023-03-08T20:35:04.706Z,27.99
2023-03-08T20:36:04.810Z,27.94
2023-03-08T20:37:04.709Z,27.96
2023-03-08T20:38:04.682Z,27.93
2023-03-08T20:39:04.677Z,27.90
2023-03-08T20:40:04.692Z,27.90
2023-03-08T20:41:04.659Z,27.94
2023-03-08T20:42:04.650Z,27.94
2023-03-08T20:43:04.639Z,27.88
2023-03-08T20:44:04.632Z,27.93
2023-03-08T20:45:04.628Z,27.91
2023-03-08T20:46:04.726Z,27.97
2023-03-08T20:47:04.597Z,27.90
2023-03-08T20:48:04.597Z,27.93
2023-03-08T20:49:04.586Z,27.90
2023-03-08T20:50:04.578Z,27.87
2023-03-08T20:51:04.569Z,27.88
2023-03-08T20:52:04.584Z,27.88
2023-03-08T20:53:04.574Z,27.91
2023-03-08T20:54:04.543Z,27.90
2023-03-08T20:55:04.825Z,27.83
2023-03-08T20:56:04.523Z,27.85
2023-03-08T20:57:04.525Z,27.85
2023-03-08T20:58:04.506Z,27.87
2023-03-08T20:59:04.505Z,27.88
2023-03-08T21:00:04.487Z,27.85
2023-03-08T21:01:04.519Z,27.86
2023-03-08T21:02:04.469Z,27.81
2023-03-08T21:03:04.464Z,27.87
2023-03-08T21:04:04.472Z,27.84
2023-03-08T21:05:04.448Z,27.84
2023-03-08T21:06:04.436Z,27.87
2023-03-08T21:07:04.428Z,27.87
2023-03-08T21:08:04.424Z,27.85
2023-03-08T21:09:04.469Z,27.81
2023-03-08T21:10:04.411Z,27.84
2023-03-08T21:11:04.396Z,27.84
2023-03-08T21:12:04.391Z,27.83
2023-03-08T21:13:04.375Z,27.81
2023-03-08T21:14:04.400Z,27.84
2023-03-08T21:15:05.188Z,27.82
2023-03-08T21:16:04.481Z,27.80
2023-03-08T21:17:04.347Z,27.80
2023-03-08T21:18:04.334Z,27.82
2023-03-08T21:19:04.398Z,27.80
2023-03-08T21:20:04.314Z,27.80
2023-03-08T21:21:04.303Z,27.77
2023-03-08T21:22:04.332Z,27.81
2023-03-08T21:23:04.292Z,27.78
2023-03-08T21:24:04.323Z,27.81
2023-03-08T21:25:04.306Z,27.78
2023-03-08T21:26:04.395Z,27.82
2023-03-08T21:27:04.274Z,27.78
2023-03-08T21:28:04.248Z,27.78
2023-03-08T21:29:04.233Z,27.80
2023-03-08T21:30:04.227Z,27.80
2023-03-08T21:31:04.285Z,27.77
2023-03-08T21:32:04.215Z,27.77
2023-03-08T21:33:04.195Z,27.81
2023-03-08T21:34:04.189Z,27.78
2023-03-08T21:35:04.235Z,27.76
2023-03-08T21:36:04.249Z,27.80
2023-03-08T21:37:04.160Z,27.75
2023-03-08T21:38:04.161Z,27.72
2023-03-08T21:39:04.148Z,27.73
2023-03-08T21:40:05.113Z,27.76
2023-03-08T21:41:04.156Z,27.77
2023-03-08T21:42:04.119Z,27.80
2023-03-08T21:43:04.105Z,27.76
2023-03-08T21:44:04.101Z,27.77
2023-03-08T21:45:04.090Z,27.71
2023-03-08T21:46:04.141Z,27.71
2023-03-08T21:47:04.069Z,27.72
2023-03-08T21:48:04.063Z,27.74
2023-03-08T21:49:04.080Z,27.72
2023-03-08T21:50:04.060Z,27.74
2023-03-08T21:51:04.047Z,27.70
2023-03-08T21:52:04.030Z,27.69
2023-03-08T21:53:04.030Z,27.72
2023-03-08T21:54:04.020Z,27.73
2023-03-08T21:55:04.006Z,27.70
2023-03-08T21:56:03.995Z,27.67
2023-03-08T21:57:04.008Z,27.74
2023-03-08T21:58:03.972Z,27.73
2023-03-08T21:59:03.984Z,27.72
2023-03-08T22:00:03.967Z,27.69
2023-03-08T22:01:03.947Z,27.66
2023-03-08T22:02:03.972Z,27.67
2023-03-08T22:03:04.038Z,27.73
2023-03-08T22:04:03.927Z,27.70
2023-03-08T22:05:03.919Z,27.69
2023-03-08T22:06:03.906Z,27.67
2023-03-08T22:07:03.900Z,27.63
2023-03-08T22:08:03.889Z,27.63
2023-03-08T22:09:03.890Z,27.66
2023-03-08T22:10:03.875Z,27.61
2023-03-08T22:11:03.871Z,27.66
2023-03-08T22:12:03.858Z,27.61
2023-03-08T22:13:03.895Z,27.67
2023-03-08T22:14:03.837Z,27.62
2023-03-08T22:15:03.822Z,27.67
2023-03-08T22:16:03.876Z,27.67
2023-03-08T22:17:03.817Z,27.64
2023-03-08T22:18:03.795Z,27.60
2023-03-08T22:19:03.792Z,27.63
2023-03-08T22:20:03.810Z,27.67
2023-03-08T22:21:03.772Z,27.64
2023-03-08T22:22:03.763Z,27.63
2023-03-08T22:23:03.754Z,27.66
2023-03-08T22:24:03.749Z,27.63
2023-03-08T22:25:03.737Z,27.63
2023-03-08T22:26:03.728Z,27.60
2023-03-08T22:27:03.719Z,27.59
2023-03-08T22:28:03.720Z,27.59
2023-03-08T22:29:03.738Z,27.60
2023-03-08T22:30:03.694Z,27.57
2023-03-08T22:31:03.764Z,27.62
2023-03-08T22:32:03.679Z,27.57
2023-03-08T22:33:03.668Z,27.58
2023-03-08T22:34:03.659Z,27.58
2023-03-08T22:35:03.651Z,27.60
2023-03-08T22:36:03.703Z,27.61
2023-03-08T22:37:03.641Z,27.56
2023-03-08T22:38:03.629Z,27.57
2023-03-08T22:39:03.625Z,27.60
2023-03-08T22:40:03.608Z,27.59
2023-03-08T22:41:03.605Z,27.60
2023-03-08T22:42:03.593Z,27.60
2023-03-08T22:43:03.589Z,27.58
2023-03-08T22:44:03.572Z,27.59
2023-03-08T22:45:03.598Z,27.60
2023-03-08T22:46:03.607Z,27.56
2023-03-08T22:47:03.552Z,27.58
2023-03-08T22:48:03.536Z,27.60
2023-03-08T22:49:03.530Z,27.56
2023-03-08T22:50:03.528Z,27.53
2023-03-08T22:51:10.713Z,27.55
2023-03-08T22:52:03.505Z,27.53
2023-03-08T22:53:03.510Z,27.53
2023-03-08T22:54:03.485Z,27.56
2023-03-08T22:55:03.476Z,27.49
2023-03-08T22:56:03.483Z,27.55
2023-03-08T22:57:03.463Z,27.53
2023-03-08T22:58:03.465Z,27.52
2023-03-08T22:59:03.490Z,27.55
2023-03-08T23:00:03.439Z,27.55
2023-03-08T23:01:03.465Z,27.55
2023-03-08T23:02:03.414Z,27.52
2023-03-08T23:03:03.497Z,27.55
2023-03-08T23:04:03.456Z,27.55
2023-03-08T23:05:03.390Z,27.53
2023-03-08T23:06:03.380Z,27.48
2023-03-08T23:07:03.373Z,27.49
2023-03-08T23:08:03.368Z,27.46
2023-03-08T23:09:03.354Z,27.50
2023-03-08T23:10:03.360Z,27.53
2023-03-08T23:11:03.345Z,27.50
2023-03-08T23:12:03.352Z,27.52
2023-03-08T23:13:03.323Z,27.53
2023-03-08T23:14:03.329Z,27.48
2023-03-08T23:15:03.296Z,27.47
2023-03-08T23:16:03.296Z,27.50
2023-03-08T23:17:03.348Z,27.49
2023-03-08T23:18:03.275Z,27.45
2023-03-08T23:19:03.266Z,27.52
2023-03-08T23:20:03.254Z,27.49
2023-03-08T23:21:03.291Z,27.43
2023-03-08T23:22:03.290Z,27.45
2023-03-08T23:23:03.257Z,27.43
2023-03-08T23:24:03.218Z,27.47
2023-03-08T23:25:03.212Z,27.48
2023-03-08T23:26:03.201Z,27.46
2023-03-08T23:27:03.193Z,27.43
2023-03-08T23:28:03.182Z,27.47
2023-03-08T23:29:03.178Z,27.46
2023-03-08T23:30:03.200Z,27.46
2023-03-08T23:31:03.194Z,27.39
2023-03-08T23:32:03.255Z,27.45
2023-03-08T23:33:03.162Z,27.43
2023-03-08T23:34:03.135Z,27.46